Terminal Aerodrome Forecast
Issued by NWS

Home | Current Version | Previous Version | Text Only | Print | Product List | Glossary On
Versions: 1 2 3 4 5 6 7 8 9 10 11 12 13 14 15 16 17 18 19 20 21 22 23 24 25 26 27 28 29 30 31 32 33 34 35
000
FTUS45 KTWC 051700
TAFOLS
TAF
KOLS 051735Z 0518/0618 08011KT P6SM SKC
     FM052000 09014G22KT P6SM SKC
     FM060300 06011KT P6SM SKC
     FM061500 12014G24KT P6SM SKC=

USA.gov is the U.S. government's official web portal to all federal, state and local government web resources and services.